sensor_id;sensor_type;location;lat;lon;timestamp;pressure;altitude;pressure_sealevel;temperature;humidity
30338;BME280;17143;51.888;5.408;2022-08-19T00:02:26;101174.78;;;21.55;86.62
30338;BME280;17143;51.888;5.408;2022-08-19T00:17:28;101176.13;;;21.29;88.33
30338;BME280;17143;51.888;5.408;2022-08-19T00:32:31;101177.53;;;21.08;89.34
30338;BME280;17143;51.888;5.408;2022-08-19T00:47:33;101177.38;;;20.99;89.52
30338;BME280;17143;51.888;5.408;2022-08-19T01:02:35;101175.31;;;20.83;90.00
30338;BME280;17143;51.888;5.408;2022-08-19T01:17:40;101168.88;;;20.71;90.34
30338;BME280;17143;51.888;5.408;2022-08-19T01:32:42;101190.63;;;20.53;90.67
30338;BME280;17143;51.888;5.408;2022-08-19T01:47:44;101172.66;;;20.37;91.58
30338;BME280;17143;51.888;5.408;2022-08-19T02:02:46;101184.78;;;20.26;91.70
30338;BME280;17143;51.888;5.408;2022-08-19T02:17:48;101179.94;;;20.07;92.67
30338;BME280;17143;51.888;5.408;2022-08-19T02:32:50;101199.84;;;19.89;93.10
30338;BME280;17143;51.888;5.408;2022-08-19T02:47:52;101185.53;;;19.80;94.00
30338;BME280;17143;51.888;5.408;2022-08-19T03:02:54;101196.75;;;19.70;94.65
30338;BME280;17143;51.888;5.408;2022-08-19T03:17:57;101194.66;;;19.57;95.78
30338;BME280;17143;51.888;5.408;2022-08-19T03:32:59;101191.47;;;19.34;96.61
30338;BME280;17143;51.888;5.408;2022-08-19T03:48:01;101187.81;;;19.29;96.86
30338;BME280;17143;51.888;5.408;2022-08-19T04:03:03;101182.31;;;19.20;96.02
30338;BME280;17143;51.888;5.408;2022-08-19T04:18:05;101174.09;;;19.09;96.22
30338;BME280;17143;51.888;5.408;2022-08-19T04:33:08;101172.00;;;18.96;96.68
30338;BME280;17143;51.888;5.408;2022-08-19T04:48:10;101167.47;;;18.91;96.69
30338;BME280;17143;51.888;5.408;2022-08-19T05:03:12;101174.28;;;18.82;97.67
30338;BME280;17143;51.888;5.408;2022-08-19T05:18:14;101200.34;;;19.02;99.17
30338;BME280;17143;51.888;5.408;2022-08-19T05:33:16;101217.88;;;19.34;100.00
30338;BME280;17143;51.888;5.408;2022-08-19T05:48:18;101213.22;;;19.58;100.00
30338;BME280;17143;51.888;5.408;2022-08-19T06:03:20;101215.03;;;19.98;100.00
30338;BME280;17143;51.888;5.408;2022-08-19T06:18:22;101221.22;;;19.98;100.00
30338;BME280;17143;51.888;5.408;2022-08-19T06:33:24;101223.88;;;19.98;100.00
30338;BME280;17143;51.888;5.408;2022-08-19T06:48:26;101221.41;;;20.08;100.00
30338;BME280;17143;51.888;5.408;2022-08-19T07:03:30;101225.41;;;20.28;100.00
30338;BME280;17143;51.888;5.408;2022-08-19T07:18:33;101229.06;;;20.79;100.00
30338;BME280;17143;51.888;5.408;2022-08-19T07:33:35;101227.09;;;21.12;98.38
30338;BME280;17143;51.888;5.408;2022-08-19T07:48:37;101249.97;;;22.15;93.63
30338;BME280;17143;51.888;5.408;2022-08-19T08:03:39;101259.75;;;21.64;94.13
30338;BME280;17143;51.888;5.408;2022-08-19T08:18:41;101268.44;;;22.09;92.84
30338;BME280;17143;51.888;5.408;2022-08-19T08:33:43;101287.47;;;22.39;91.94
30338;BME280;17143;51.888;5.408;2022-08-19T08:48:49;101297.63;;;22.71;90.46
30338;BME280;17143;51.888;5.408;2022-08-19T09:03:53;101306.69;;;23.77;85.46
30338;BME280;17143;51.888;5.408;2022-08-19T09:19:06;101301.44;;;23.89;83.04
30338;BME280;17143;51.888;5.408;2022-08-19T09:34:09;101305.78;;;25.75;76.81
30338;BME280;17143;51.888;5.408;2022-08-19T09:49:11;101316.28;;;25.00;78.02
30338;BME280;17143;51.888;5.408;2022-08-19T10:04:13;101323.22;;;24.60;78.59
30338;BME280;17143;51.888;5.408;2022-08-19T10:19:15;101323.00;;;24.19;80.81
30338;BME280;17143;51.888;5.408;2022-08-19T10:34:17;101306.31;;;24.55;80.92
30338;BME280;17143;51.888;5.408;2022-08-19T10:49:19;101300.38;;;25.37;79.20
30338;BME280;17143;51.888;5.408;2022-08-19T11:04:20;101303.81;;;26.71;73.85
30338;BME280;17143;51.888;5.408;2022-08-19T11:19:23;101287.88;;;26.38;74.15
30338;BME280;17143;51.888;5.408;2022-08-19T11:34:26;101273.31;;;27.08;71.88
30338;BME280;17143;51.888;5.408;2022-08-19T11:49:28;101276.44;;;27.68;68.64
30338;BME280;17143;51.888;5.408;2022-08-19T12:04:30;101270.69;;;28.10;67.26
30338;BME280;17143;51.888;5.408;2022-08-19T12:19:32;101271.06;;;28.56;65.21
30338;BME280;17143;51.888;5.408;2022-08-19T12:34:35;101263.66;;;27.97;65.80
30338;BME280;17143;51.888;5.408;2022-08-19T12:49:37;101250.78;;;27.38;66.56
30338;BME280;17143;51.888;5.408;2022-08-19T13:04:39;101247.63;;;27.94;66.53
30338;BME280;17143;51.888;5.408;2022-08-19T13:19:41;101254.59;;;28.13;65.73
30338;BME280;17143;51.888;5.408;2022-08-19T13:34:43;101252.81;;;28.85;63.34
30338;BME280;17143;51.888;5.408;2022-08-19T13:49:45;101252.81;;;28.12;65.28
30338;BME280;17143;51.888;5.408;2022-08-19T14:04:47;101246.63;;;28.04;66.52
30338;BME280;17143;51.888;5.408;2022-08-19T14:19:49;101252.94;;;27.97;67.76
30338;BME280;17143;51.888;5.408;2022-08-19T14:34:51;101248.63;;;26.52;69.86
30338;BME280;17143;51.888;5.408;2022-08-19T14:49:53;101239.84;;;26.14;76.56
30338;BME280;17143;51.888;5.408;2022-08-19T15:04:55;101232.78;;;25.79;77.81
30338;BME280;17143;51.888;5.408;2022-08-19T15:19:57;101245.22;;;25.89;78.35
30338;BME280;17143;51.888;5.408;2022-08-19T15:34:59;101245.13;;;26.35;78.42
30338;BME280;17143;51.888;5.408;2022-08-19T15:50:04;101250.44;;;26.41;79.64
30338;BME280;17143;51.888;5.408;2022-08-19T16:05:11;101246.88;;;26.45;78.81
30338;BME280;17143;51.888;5.408;2022-08-19T16:20:13;101241.63;;;26.18;76.30
30338;BME280;17143;51.888;5.408;2022-08-19T16:35:15;101254.09;;;26.07;77.97
30338;BME280;17143;51.888;5.408;2022-08-19T16:50:18;101270.16;;;25.88;78.52
30338;BME280;17143;51.888;5.408;2022-08-19T17:05:20;101248.81;;;25.61;82.86
30338;BME280;17143;51.888;5.408;2022-08-19T17:20:22;101264.84;;;25.55;84.41
30338;BME280;17143;51.888;5.408;2022-08-19T17:35:24;101263.88;;;25.08;85.84
30338;BME280;17143;51.888;5.408;2022-08-19T17:50:26;101252.31;;;25.03;86.82
30338;BME280;17143;51.888;5.408;2022-08-19T18:05:30;101254.00;;;24.76;88.34
30338;BME280;17143;51.888;5.408;2022-08-19T18:20:33;101271.50;;;24.20;89.79
30338;BME280;17143;51.888;5.408;2022-08-19T18:35:34;101283.69;;;23.85;91.26
30338;BME280;17143;51.888;5.408;2022-08-19T18:50:37;101303.03;;;23.62;92.64
30338;BME280;17143;51.888;5.408;2022-08-19T19:05:39;101311.84;;;23.55;92.84
30338;BME280;17143;51.888;5.408;2022-08-19T19:20:41;101338.34;;;23.45;94.04
30338;BME280;17143;51.888;5.408;2022-08-19T19:35:43;101334.41;;;23.11;95.39
30338;BME280;17143;51.888;5.408;2022-08-19T19:50:45;101346.59;;;22.94;96.21
30338;BME280;17143;51.888;5.408;2022-08-19T20:05:48;101349.91;;;22.75;97.21
30338;BME280;17143;51.888;5.408;2022-08-19T20:20:50;101362.16;;;22.64;96.85
30338;BME280;17143;51.888;5.408;2022-08-19T20:35:52;101362.97;;;22.60;97.41
30338;BME280;17143;51.888;5.408;2022-08-19T20:50:56;101370.78;;;22.51;98.13
30338;BME280;17143;51.888;5.408;2022-08-19T21:05:58;101369.84;;;22.45;98.93
30338;BME280;17143;51.888;5.408;2022-08-19T21:21:00;101362.66;;;22.38;99.06
30338;BME280;17143;51.888;5.408;2022-08-19T21:36:03;101367.19;;;22.45;99.46
30338;BME280;17143;51.888;5.408;2022-08-19T21:51:06;101360.00;;;22.38;98.98
30338;BME280;17143;51.888;5.408;2022-08-19T22:06:08;101369.63;;;22.30;99.28
30338;BME280;17143;51.888;5.408;2022-08-19T22:21:11;101361.56;;;22.24;99.54
30338;BME280;17143;51.888;5.408;2022-08-19T22:36:14;101365.06;;;22.22;99.92
30338;BME280;17143;51.888;5.408;2022-08-19T22:51:16;101372.19;;;22.24;99.81
30338;BME280;17143;51.888;5.408;2022-08-19T23:06:18;101368.56;;;22.19;99.90
30338;BME280;17143;51.888;5.408;2022-08-19T23:21:20;101379.09;;;22.13;99.95
30338;BME280;17143;51.888;5.408;2022-08-19T23:36:22;101371.78;;;21.97;100.00
30338;BME280;17143;51.888;5.408;2022-08-19T23:51:24;101369.97;;;21.96;100.00
